www.cux-wetter.de
Wetterdaten: Freitag, 15.08.2014
Datum Zeit Temp. A. Feuchte A. Luftdruck Regen Wind Richtung Richtung Sonnenschein Solar Taupunkt Windchill Windben
15.08.2014 00:00 15,9 C 86 % 1007,5 hPa 0,0 l/m 13,6 km/h (3 Bft) W 260 0 min 0 W/m 13,6 C 12,7 C 13,6 km/h (3 Bft)
15.08.2014 00:15 15,9 C 87 % 1007,5 hPa 0,0 l/m 11,3 km/h (2 Bft) W-SW 255 0 min 0 W/m 13,7 C 13,6 C 11,3 km/h (2 Bft)
15.08.2014 00:30 15,9 C 87 % 1007,5 hPa 0,0 l/m 7,9 km/h (2 Bft) W 260 0 min 0 W/m 13,7 C 15,1 C 7,9 km/h (2 Bft)
15.08.2014 00:45 15,8 C 87 % 1007,5 hPa 0,0 l/m 13,0 km/h (3 Bft) W-SW 255 0 min 0 W/m 13,6 C 12,8 C 13,0 km/h (3 Bft)
15.08.2014 01:00 15,8 C 87 % 1007,5 hPa 0,0 l/m 12,0 km/h (2 Bft) W-SW 255 0 min 0 W/m 13,6 C 13,2 C 12,0 km/h (2 Bft)
15.08.2014 01:15 16,0 C 88 % 1007,5 hPa 0,0 l/m 12,0 km/h (2 Bft) W-SW 250 0 min 0 W/m 14,0 C 13,4 C 12,0 km/h (2 Bft)
15.08.2014 01:29 15,9 C 88 % 1007,5 hPa 0,0 l/m 13,5 km/h (3 Bft) W 260 0 min 0 W/m 13,9 C 12,8 C 13,5 km/h (3 Bft)
15.08.2014 01:45 15,7 C 88 % 1007,5 hPa 0,0 l/m 11,1 km/h (2 Bft) W 265 0 min 0 W/m 13,7 C 13,4 C 11,1 km/h (2 Bft)
15.08.2014 02:00 15,7 C 87 % 1007,5 hPa 0,0 l/m 8,0 km/h (2 Bft) W 260 0 min 0 W/m 13,5 C 14,8 C 8,0 km/h (2 Bft)
15.08.2014 02:15 15,7 C 87 % 1007,5 hPa 0,0 l/m 8,1 km/h (2 Bft) W 270 0 min 0 W/m 13,5 C 14,8 C 8,1 km/h (2 Bft)
15.08.2014 02:29 15,7 C 87 % 1007,5 hPa 0,0 l/m 11,1 km/h (2 Bft) W 265 0 min 0 W/m 13,5 C 13,4 C 11,1 km/h (2 Bft)
15.08.2014 02:45 15,6 C 86 % 1007,5 hPa 0,0 l/m 6,1 km/h (2 Bft) W-SW 250 0 min 0 W/m 13,3 C 15,6 C 6,1 km/h (2 Bft)
15.08.2014 03:00 15,6 C 86 % 1007,5 hPa 0,0 l/m 11,6 km/h (2 Bft) W-SW 255 0 min 0 W/m 13,3 C 13,1 C 11,6 km/h (2 Bft)
15.08.2014 03:15 15,7 C 87 % 1007,5 hPa 0,0 l/m 13,4 km/h (3 Bft) W 265 0 min 0 W/m 13,5 C 12,6 C 13,4 km/h (3 Bft)
15.08.2014 03:30 15,8 C 86 % 1007,5 hPa 0,0 l/m 10,0 km/h (2 Bft) W 265 0 min 0 W/m 13,5 C 14,0 C 10,0 km/h (2 Bft)
15.08.2014 03:45 15,8 C 87 % 1007,5 hPa 0,0 l/m 14,3 km/h (3 Bft) W 280 0 min 0 W/m 13,6 C 12,4 C 14,3 km/h (3 Bft)
15.08.2014 04:00 15,8 C 86 % 1007,5 hPa 0,0 l/m 15,9 km/h (3 Bft) W-NW 295 0 min 0 W/m 13,5 C 11,9 C 15,9 km/h (3 Bft)
15.08.2014 04:15 15,8 C 86 % 1007,5 hPa 0,0 l/m 14,6 km/h (3 Bft) NW 315 0 min 0 W/m 13,5 C 12,3 C 14,6 km/h (3 Bft)
15.08.2014 04:30 15,6 C 85 % 1007,5 hPa 0,3 l/m 15,2 km/h (3 Bft) NW 320 0 min 0 W/m 13,1 C 11,9 C 15,2 km/h (3 Bft)
15.08.2014 04:45 15,6 C 84 % 1007,5 hPa 0,0 l/m 10,5 km/h (2 Bft) W 280 0 min 0 W/m 12,9 C 13,6 C 10,5 km/h (2 Bft)
15.08.2014 05:00 15,6 C 84 % 1007,5 hPa 0,0 l/m 8,5 km/h (2 Bft) W 270 0 min 0 W/m 12,9 C 14,5 C 8,5 km/h (2 Bft)
15.08.2014 05:15 15,6 C 84 % 1007,5 hPa 0,0 l/m 3,6 km/h (1 Bft) W 270 0 min 0 W/m 12,9 C 15,6 C 3,6 km/h (1 Bft)
15.08.2014 05:30 15,5 C 84 % 1007,5 hPa 0,0 l/m 13,0 km/h (3 Bft) NW 320 0 min 0 W/m 12,8 C 12,5 C 13,0 km/h (3 Bft)
15.08.2014 05:45 15,4 C 83 % 1007,5 hPa 0,0 l/m 14,2 km/h (3 Bft) NW 310 0 min 0 W/m 12,5 C 11,9 C 14,2 km/h (3 Bft)
15.08.2014 06:00 15,6 C 82 % 1007,5 hPa 0,0 l/m 12,1 km/h (2 Bft) N-NW 345 0 min 0 W/m 12,5 C 12,9 C 12,1 km/h (2 Bft)
15.08.2014 06:15 15,4 C 82 % 1007,5 hPa 0,0 l/m 0,6 km/h (0 Bft) W 270 0 min 0 W/m 12,3 C 15,4 C 0,6 km/h (0 Bft)
15.08.2014 06:30 15,2 C 82 % 1007,5 hPa 0,0 l/m 0,3 km/h (0 Bft) W 270 0 min 0 W/m 12,1 C 15,2 C 0,3 km/h (0 Bft)
15.08.2014 06:45 15,4 C 84 % 1007,5 hPa 0,0 l/m 15,7 km/h (3 Bft) W 270 0 min 0 W/m 12,7 C 11,5 C 15,7 km/h (3 Bft)
15.08.2014 07:00 15,6 C 85 % 1007,5 hPa 0,3 l/m 15,4 km/h (3 Bft) W-NW 290 0 min 0 W/m 13,1 C 11,8 C 15,4 km/h (3 Bft)
15.08.2014 07:15 15,7 C 86 % 1007,5 hPa 0,0 l/m 13,5 km/h (3 Bft) W 260 0 min 0 W/m 13,4 C 12,5 C 13,5 km/h (3 Bft)
15.08.2014 07:30 15,4 C 85 % 1007,5 hPa 0,0 l/m 18,2 km/h (3 Bft) W 270 0 min 0 W/m 12,9 C 10,7 C 18,2 km/h (3 Bft)
15.08.2014 07:45 15,4 C 84 % 1007,5 hPa 0,0 l/m 9,8 km/h (2 Bft) W 275 0 min 0 W/m 12,7 C 13,6 C 9,8 km/h (2 Bft)
15.08.2014 08:00 15,5 C 84 % 1007,5 hPa 0,0 l/m 9,0 km/h (2 Bft) W 270 0 min 0 W/m 12,8 C 14,1 C 9,0 km/h (2 Bft)
15.08.2014 08:15 16,0 C 85 % 1007,5 hPa 0,0 l/m 13,1 km/h (3 Bft) W-NW 295 0 min 0 W/m 13,5 C 13,0 C 13,1 km/h (3 Bft)
15.08.2014 08:30 16,3 C 86 % 1007,5 hPa 0,0 l/m 14,0 km/h (3 Bft) NW 305 0 min 0 W/m 14,0 C 13,1 C 14,0 km/h (3 Bft)
15.08.2014 08:45 16,3 C 86 % 1007,5 hPa 0,0 l/m 13,5 km/h (3 Bft) W 265 0 min 0 W/m 14,0 C 13,2 C 13,5 km/h (3 Bft)
15.08.2014 09:00 16,4 C 86 % 1007,5 hPa 0,0 l/m 13,3 km/h (3 Bft) W-NW 290 0 min 0 W/m 14,1 C 13,4 C 13,3 km/h (3 Bft)
15.08.2014 09:15 16,5 C 86 % 1007,5 hPa 0,0 l/m 14,9 km/h (3 Bft) NW 310 0 min 0 W/m 14,1 C 13,0 C 14,9 km/h (3 Bft)
15.08.2014 09:30 16,9 C 84 % 1007,5 hPa 0,0 l/m 14,4 km/h (3 Bft) W 275 0 min 0 W/m 14,2 C 13,7 C 14,4 km/h (3 Bft)
15.08.2014 09:45 17,2 C 83 % 1007,5 hPa 0,0 l/m 20,6 km/h (4 Bft) W-NW 285 0 min 0 W/m 14,3 C 12,5 C 20,6 km/h (4 Bft)
15.08.2014 10:00 17,4 C 82 % 1007,5 hPa 0,0 l/m 16,6 km/h (3 Bft) W-NW 290 0 min 0 W/m 14,3 C 13,7 C 16,6 km/h (3 Bft)
15.08.2014 10:15 17,3 C 81 % 1007,5 hPa 0,0 l/m 20,0 km/h (4 Bft) W-NW 285 0 min 0 W/m 14,0 C 12,7 C 20,0 km/h (4 Bft)
15.08.2014 10:30 17,6 C 78 % 1008,5 hPa 0,0 l/m 18,5 km/h (3 Bft) NW 305 0 min 0 W/m 13,7 C 13,4 C 18,5 km/h (3 Bft)
15.08.2014 10:45 18,2 C 75 % 1008,5 hPa 0,0 l/m 24,3 km/h (4 Bft) W-NW 290 0 min 0 W/m 13,7 C 13,1 C 24,3 km/h (4 Bft)
15.08.2014 11:00 18,6 C 75 % 1008,5 hPa 0,0 l/m 21,6 km/h (4 Bft) NW 320 0 min 0 W/m 14,1 C 14,1 C 21,6 km/h (4 Bft)
15.08.2014 11:15 18,9 C 75 % 1008,5 hPa 0,0 l/m 25,6 km/h (4 Bft) W 280 0 min 0 W/m 14,4 C 13,8 C 25,6 km/h (4 Bft)
15.08.2014 11:30 19,9 C 73 % 1008,5 hPa 0,0 l/m 17,6 km/h (3 Bft) NW 310 0 min 0 W/m 14,9 C 16,5 C 17,6 km/h (3 Bft)
15.08.2014 11:45 18,8 C 72 % 1008,5 hPa 0,0 l/m 16,3 km/h (3 Bft) W-NW 285 0 min 0 W/m 13,6 C 15,5 C 16,3 km/h (3 Bft)
15.08.2014 12:00 19,8 C 69 % 1008,5 hPa 0,0 l/m 20,5 km/h (4 Bft) NW 320 0 min 0 W/m 13,9 C 15,9 C 20,5 km/h (4 Bft)
15.08.2014 12:15 20,7 C 67 % 1008,5 hPa 0,0 l/m 21,3 km/h (4 Bft) W-NW 285 0 min 0 W/m 14,3 C 16,9 C 21,3 km/h (4 Bft)
15.08.2014 12:30 21,0 C 66 % 1008,5 hPa 0,0 l/m 18,9 km/h (3 Bft) NW 305 0 min 0 W/m 14,4 C 17,7 C 18,9 km/h (3 Bft)
15.08.2014 12:45 20,6 C 65 % 1008,5 hPa 0,0 l/m 20,9 km/h (4 Bft) W-NW 295 0 min 0 W/m 13,8 C 16,8 C 20,9 km/h (4 Bft)
15.08.2014 13:00 20,7 C 64 % 1008,5 hPa 0,0 l/m 22,1 km/h (4 Bft) NW 305 0 min 0 W/m 13,6 C 16,8 C 22,1 km/h (4 Bft)
15.08.2014 13:15 21,8 C 63 % 1008,5 hPa 0,0 l/m 21,1 km/h (4 Bft) NW 315 0 min 0 W/m 14,4 C 18,4 C 21,1 km/h (4 Bft)
15.08.2014 13:30 21,1 C 63 % 1008,5 hPa 0,0 l/m 21,5 km/h (4 Bft) NW 325 0 min 0 W/m 13,8 C 17,4 C 21,5 km/h (4 Bft)
15.08.2014 13:45 21,8 C 62 % 1008,5 hPa 0,0 l/m 23,8 km/h (4 Bft) NW 325 0 min 0 W/m 14,2 C 18,0 C 23,8 km/h (4 Bft)
15.08.2014 14:00 20,8 C 62 % 1008,5 hPa 0,0 l/m 23,7 km/h (4 Bft) N-NW 330 0 min 0 W/m 13,2 C 16,7 C 23,7 km/h (4 Bft)
15.08.2014 14:15 19,8 C 64 % 1008,5 hPa 0,0 l/m 19,1 km/h (3 Bft) N-NW 340 0 min 0 W/m 12,8 C 16,1 C 19,1 km/h (3 Bft)
15.08.2014 14:30 21,0 C 63 % 1008,5 hPa 0,0 l/m 21,2 km/h (4 Bft) N-NW 330 0 min 0 W/m 13,7 C 17,3 C 21,2 km/h (4 Bft)
15.08.2014 14:45 22,0 C 57 % 1008,5 hPa 0,0 l/m 20,3 km/h (4 Bft) NW 325 0 min 0 W/m 13,1 C 18,7 C 20,3 km/h (4 Bft)
15.08.2014 15:00 22,0 C 58 % 1008,5 hPa 0,0 l/m 20,3 km/h (4 Bft) NW 320 0 min 0 W/m 13,3 C 18,7 C 20,3 km/h (4 Bft)
15.08.2014 15:15 21,2 C 61 % 1008,5 hPa 0,0 l/m 9,6 km/h (2 Bft) N-NW 330 0 min 0 W/m 13,4 C 20,1 C 9,6 km/h (2 Bft)
15.08.2014 15:30 21,0 C 62 % 1008,5 hPa 0,0 l/m 20,0 km/h (4 Bft) NW 325 0 min 0 W/m 13,4 C 17,5 C 20,0 km/h (4 Bft)
15.08.2014 15:45 21,7 C 60 % 1009,5 hPa 0,0 l/m 18,0 km/h (3 Bft) NW 325 0 min 0 W/m 13,6 C 18,7 C 18,0 km/h (3 Bft)
15.08.2014 16:00 21,6 C 61 % 1008,5 hPa 0,0 l/m 20,9 km/h (4 Bft) N-NW 335 0 min 0 W/m 13,7 C 18,1 C 20,9 km/h (4 Bft)
15.08.2014 16:15 20,9 C 63 % 1009,5 hPa 0,0 l/m 20,1 km/h (4 Bft) N-NW 340 0 min 0 W/m 13,6 C 17,4 C 20,1 km/h (4 Bft)
15.08.2014 16:29 21,1 C 63 % 1008,5 hPa 0,0 l/m 22,3 km/h (4 Bft) N-NW 340 0 min 0 W/m 13,8 C 17,3 C 22,3 km/h (4 Bft)
15.08.2014 16:45 20,3 C 65 % 1009,5 hPa 0,0 l/m 16,8 km/h (3 Bft) N-NW 335 0 min 0 W/m 13,5 C 17,2 C 16,8 km/h (3 Bft)
15.08.2014 17:00 20,4 C 64 % 1009,5 hPa 0,0 l/m 17,5 km/h (3 Bft) NW 325 0 min 0 W/m 13,4 C 17,2 C 17,5 km/h (3 Bft)
15.08.2014 17:15 20,6 C 63 % 1009,5 hPa 0,0 l/m 19,5 km/h (3 Bft) N-NW 340 0 min 0 W/m 13,3 C 17,1 C 19,5 km/h (3 Bft)
15.08.2014 17:29 20,2 C 64 % 1009,5 hPa 0,0 l/m 19,5 km/h (3 Bft) N-NW 340 0 min 0 W/m 13,2 C 16,6 C 19,5 km/h (3 Bft)
15.08.2014 17:45 19,4 C 66 % 1009,5 hPa 0,0 l/m 19,5 km/h (3 Bft) N-NW 340 0 min 0 W/m 12,9 C 15,5 C 19,5 km/h (3 Bft)
15.08.2014 18:00 19,2 C 68 % 1009,5 hPa 0,0 l/m 19,5 km/h (3 Bft) N-NW 340 0 min 0 W/m 13,1 C 15,3 C 19,5 km/h (3 Bft)
15.08.2014 18:15 18,8 C 69 % 1009,5 hPa 0,0 l/m 19,5 km/h (3 Bft) N-NW 340 0 min 0 W/m 13,0 C 14,8 C 19,5 km/h (3 Bft)
15.08.2014 18:30 18,5 C 69 % 1009,5 hPa 0,0 l/m 17,9 km/h (3 Bft) N 355 0 min 0 W/m 12,7 C 14,7 C 17,9 km/h (3 Bft)
15.08.2014 18:45 18,5 C 67 % 1009,5 hPa 0,0 l/m 17,9 km/h (3 Bft) N 355 0 min 0 W/m 12,3 C 14,7 C 17,9 km/h (3 Bft)
15.08.2014 19:00 18,5 C 67 % 1009,5 hPa 0,0 l/m 17,9 km/h (3 Bft) N 355 0 min 0 W/m 12,3 C 14,7 C 17,9 km/h (3 Bft)
15.08.2014 19:15 18,4 C 68 % 1009,5 hPa 0,0 l/m 17,4 km/h (3 Bft) N-NO 15 0 min 0 W/m 12,4 C 14,7 C 17,4 km/h (3 Bft)
15.08.2014 19:30 18,3 C 68 % 1009,5 hPa 0,0 l/m 19,6 km/h (3 Bft) N 10 0 min 0 W/m 12,3 C 14,1 C 19,6 km/h (3 Bft)
15.08.2014 19:45 18,1 C 68 % 1009,5 hPa 0,0 l/m 19,7 km/h (3 Bft) N 5 0 min 0 W/m 12,1 C 13,8 C 19,7 km/h (3 Bft)
15.08.2014 20:00 18,0 C 68 % 1009,5 hPa 0,0 l/m 20,5 km/h (4 Bft) N 355 0 min 0 W/m 12,0 C 13,5 C 20,5 km/h (4 Bft)
15.08.2014 20:15 17,8 C 69 % 1009,5 hPa 0,0 l/m 18,8 km/h (3 Bft) N-NW 340 0 min 0 W/m 12,0 C 13,6 C 18,8 km/h (3 Bft)
15.08.2014 20:30 17,6 C 70 % 1010,5 hPa 0,0 l/m 19,7 km/h (3 Bft) N 355 0 min 0 W/m 12,1 C 13,2 C 19,7 km/h (3 Bft)
15.08.2014 20:45 17,4 C 70 % 1010,5 hPa 0,0 l/m 14,5 km/h (3 Bft) N-NW 340 0 min 0 W/m 11,9 C 14,2 C 14,5 km/h (3 Bft)
15.08.2014 21:00 17,2 C 71 % 1010,5 hPa 0,0 l/m 19,2 km/h (3 Bft) N-NW 330 0 min 0 W/m 11,9 C 12,8 C 19,2 km/h (3 Bft)
15.08.2014 21:15 17,1 C 70 % 1010,5 hPa 0,0 l/m 20,0 km/h (4 Bft) N-NW 340 0 min 0 W/m 11,6 C 12,5 C 20,0 km/h (4 Bft)
15.08.2014 21:30 17,0 C 71 % 1010,5 hPa 0,0 l/m 14,4 km/h (3 Bft) N-NW 330 0 min 0 W/m 11,7 C 13,8 C 14,4 km/h (3 Bft)
15.08.2014 21:45 17,0 C 72 % 1010,5 hPa 0,0 l/m 14,0 km/h (3 Bft) NW 325 0 min 0 W/m 11,9 C 13,9 C 14,0 km/h (3 Bft)
15.08.2014 22:00 16,8 C 73 % 1010,5 hPa 0,0 l/m 7,0 km/h (2 Bft) N-NW 340 0 min 0 W/m 11,9 C 16,5 C 7,0 km/h (2 Bft)
15.08.2014 22:15 16,8 C 73 % 1010,5 hPa 0,0 l/m 11,8 km/h (2 Bft) NW 325 0 min 0 W/m 11,9 C 14,4 C 11,8 km/h (2 Bft)
15.08.2014 22:30 16,8 C 74 % 1010,5 hPa 0,0 l/m 9,9 km/h (2 Bft) NW 315 0 min 0 W/m 12,1 C 15,1 C 9,9 km/h (2 Bft)
15.08.2014 22:45 16,8 C 76 % 1010,5 hPa 0,0 l/m 13,8 km/h (3 Bft) N-NW 330 0 min 0 W/m 12,5 C 13,7 C 13,8 km/h (3 Bft)
15.08.2014 23:00 16,8 C 76 % 1010,5 hPa 0,0 l/m 13,2 km/h (3 Bft) N-NW 330 0 min 0 W/m 12,5 C 13,9 C 13,2 km/h (3 Bft)
15.08.2014 23:15 16,8 C 77 % 1010,5 hPa 0,0 l/m 21,0 km/h (4 Bft) N 360 0 min 0 W/m 12,7 C 11,8 C 21,0 km/h (4 Bft)
15.08.2014 23:30 16,6 C 78 % 1010,5 hPa 0,0 l/m 20,5 km/h (4 Bft) N 350 0 min 0 W/m 12,7 C 11,7 C 20,5 km/h (4 Bft)
15.08.2014 23:45 16,5 C 79 % 1010,5 hPa 0,0 l/m 18,7 km/h (3 Bft) O-NO 60 0 min 0 W/m 12,8 C 12,0 C 18,7 km/h (3 Bft)
_ Min-Zeit 06:30 14:45 00:00 - 06:30 - - - - 21:15 07:30 06:30
Minimum _ 15,2 C 57 % 1007,5 hPa - 0,3 km/h (0 Bft) - - - - 11,6 C 10,7 C 0,3 km/h (0 Bft)
_ Max-Zeit 14:45 01:15 20:30 04:30 11:15 - - 00:00 00:00 11:30 15:15 11:15
Maximum _ 22,0 C 88 % 1010,5 hPa 0,3 l/m 25,6 km/h
W (4 Bft)
- - 0 min 0 W/m 14,9 C 20,1 C 25,6 km/h
W-NW (4 Bft)
Durchschnitt _ 17,7 C 75 % 1008,5 hPa #0,6 l/m 15,8 km/h (3 Bft) NW - #0 min. 0 W/m 13,2 C 14,6 C 15,8 km/h (3 Bft)
copyright by Holger Just